Saga Sapphire — 9HOF8 — position and weather

sailwx.info

Track history (hours):
 
Tides and Currents Weather Stations Pressure Air Temp Water Temp Dewpoint Dewpoint Depression Visibility Wind Speed Wind Dir Waves Ship Positions

Saga Sapphire

Last reported at 2019-Mar-25 23:31 UTC. Time now 2019-Mar-25 23:53 UTC.
Position N 39°06' W 009°43'.

Length 200 m; draft 8.4 m.

Type: Passenger vessel. MMSI: 256208000.

Date/timePositionNaut miles runAvg speedWind from/ knotsBaromVisibWave heightAir tempDewpointWater temp
2019-Mar-25 23:31N 39°06' W 009°43'815.9
2019-Mar-25 23:00N 38°58' W 009°43'816.0
2019-Mar-25 22:30N 38°50' W 009°42'815.8
2019-Mar-25 22:00N 38°42' W 009°41'713.7
2019-Mar-25 21:30N 38°37' W 009°36'715.0
2019-Mar-25 21:01N 38°36' W 009°26'714.7
2019-Mar-25 20:30N 38°40' W 009°18'611.5
2019-Mar-25 20:00N 38°41' W 009°11'3 5.3
2019-Mar-25 19:29N 38°43' W 009°08'0 0.0
2019-Mar-25 18:59N 38°43' W 009°08'0 0.0
2019-Mar-25 18:29N 38°43' W 009°08'0 0.0
2019-Mar-25 17:56N 38°43' W 009°08'0 0.0
2019-Mar-25 17:25N 38°43' W 009°08'0 0.0
2019-Mar-25 16:58N 38°43' W 009°08'0 0.0
2019-Mar-25 16:29N 38°43' W 009°08'0 0.0
2019-Mar-25 15:59N 38°43' W 009°08'0 0.0
2019-Mar-25 15:29N 38°43' W 009°08'0 0.0
2019-Mar-25 15:00N 38°43' W 009°08'0 0.0
2019-Mar-25 14:31N 38°43' W 009°08'0 0.0
2019-Mar-25 14:00N 38°43' W 009°08'0 0.0
2019-Mar-25 13:30N 38°43' W 009°08'0 0.0
2019-Mar-25 13:00N 38°43' W 009°08'0 0.0
2019-Mar-25 12:28N 38°43' W 009°08'0 0.5
2019-Mar-25 12:00N 38°42' W 009°07'0 0.7
2019-Mar-25 11:30N 38°42' W 009°08'4 8.2
2019-Mar-25 11:00N 38°41' W 009°13'4 7.7
2019-Mar-25 10:30N 38°41' W 009°18'611.1
2019-Mar-25 10:00N 38°37' W 009°23'612.6
2019-Mar-25 09:30N 38°32' W 009°27'713.2
2019-Mar-25 09:00N 38°25' W 009°30'713.0
2019-Mar-25 08:30N 38°19' W 009°32'612.3
2019-Mar-25 08:01N 38°13' W 009°34'713.2
2019-Mar-25 07:31N 38°07' W 009°37'713.2
2019-Mar-25 07:01N 38°01' W 009°39'7410.6
2019-Mar-25 07:00N 37°54' W 009°36'4 9.2 010 / 101017.827.0 16.214.1
2019-Mar-25 06:31N 37°54' W 009°42'714.9
2019-Mar-25 06:00N 37°47' W 009°45'816.5
2019-Mar-25 05:30N 37°39' W 009°48'816.6
2019-Mar-25 05:00N 37°31' W 009°51'816.6
2019-Mar-25 04:30N 37°24' W 009°55'816.3
2019-Mar-25 04:00N 37°16' W 009°58'19915.3
2019-Mar-24 15:00N 34°06' W 011°12'12115.1 020 / 221013.5 5.4 18.014.6
2019-Mar-24 07:00N 32°12' W 012°00'19115.9 040 / 101012.827.0 17.013.3
2019-Mar-23 19:00N 29°13' W 013°17'1108.2
2019-Mar-23 19:00N 29°12' W 013°18'612.9 320 / 361012.010.8 17.612.617.0
2019-Mar-23 18:30N 29°06' W 013°21'713.4
2019-Mar-23 18:00N 29°01' W 013°25'611.3
2019-Mar-23 17:30N 28°57' W 013°30'2 2.9
2019-Mar-23 16:55N 28°58' W 013°32'0 0.0
2019-Mar-23 16:28N 28°58' W 013°32'0 0.0
2019-Mar-23 15:49N 28°58' W 013°32'0 0.0
2019-Mar-23 15:25N 28°58' W 013°32'0 0.0
2019-Mar-23 14:37N 28°58' W 013°32'0 0.0
2019-Mar-23 14:25N 28°58' W 013°32'0 0.0
2019-Mar-23 13:55N 28°58' W 013°32'0 0.0
2019-Mar-23 13:25N 28°58' W 013°32'0 0.0
2019-Mar-23 12:55N 28°58' W 013°32'0 0.0
2019-Mar-23 12:13N 28°58' W 013°32'0 0.0
2019-Mar-23 11:57N 28°58' W 013°32'0 0.0
2019-Mar-23 11:23N 28°58' W 013°32'0 0.0
2019-Mar-23 10:53N 28°58' W 013°32'0 0.0
2019-Mar-23 10:29N 28°58' W 013°32'0 0.0
2019-Mar-23 09:55N 28°58' W 013°32'0 0.0
2019-Mar-23 09:19N 28°58' W 013°32'0 0.0
2019-Mar-23 09:01N 28°58' W 013°32'0 0.0
2019-Mar-23 08:29N 28°58' W 013°32'0 0.0
2019-Mar-23 07:59N 28°58' W 013°32'0 0.4
2019-Mar-23 07:30N 28°58' W 013°32'1 2.8
2019-Mar-23 07:00N 28°56' W 013°32'4 7.7
2019-Mar-23 06:30N 28°53' W 013°33'5 9.9
2019-Mar-23 06:00N 28°49' W 013°37'611.5
2019-Mar-23 05:30N 28°48' W 013°43'612.2
2019-Mar-23 05:00N 28°48' W 013°50'712.8
2019-Mar-23 04:30N 28°48' W 013°58'613.1
2019-Mar-23 04:01N 28°48' W 014°05'912.6
2019-Mar-23 03:19N 28°48' W 014°15'86 3.5
2019-Mar-22 02:59N 28°26' W 015°49'510.1
2019-Mar-22 02:30N 28°22' W 015°53'5 9.3
2019-Mar-22 02:00N 28°19' W 015°56'4 7.1
2019-Mar-22 01:29N 28°18' W 016°00'4 8.7
2019-Mar-22 01:00N 28°20' W 016°04'4 8.7
2019-Mar-22 00:30N 28°23' W 016°07'4 8.8
2019-Mar-22 00:00N 28°26' W 016°11'4 7.1
2019-Mar-21 23:30N 28°29' W 016°14'1 1.1
2019-Mar-21 23:00N 28°28' W 016°14'0 0.0
2019-Mar-21 22:29N 28°28' W 016°14'0 0.0
2019-Mar-21 21:59N 28°28' W 016°14'0 0.0
2019-Mar-21 21:29N 28°28' W 016°14'0 0.0
2019-Mar-21 20:59N 28°28' W 016°14'0 0.0
2019-Mar-21 20:26N 28°28' W 016°14'0 0.0
2019-Mar-21 19:59N 28°28' W 016°14'0 0.0
2019-Mar-21 19:30N 28°28' W 016°14'0 0.0
2019-Mar-21 19:00N 28°28' W 016°14'0 0.0
2019-Mar-21 18:29N 28°28' W 016°14'0 0.0
2019-Mar-21 17:58N 28°28' W 016°14'0 0.0
2019-Mar-21 17:28N 28°28' W 016°14'0 0.0
2019-Mar-21 17:00N 28°28' W 016°14'0 0.0
2019-Mar-21 16:29N 28°28' W 016°14'0 0.0
2019-Mar-21 15:58N 28°28' W 016°14'0 0.0
2019-Mar-21 15:28N 28°28' W 016°14'0 0.0
2019-Mar-21 14:58N 28°28' W 016°14'0 0.0
2019-Mar-21 14:30N 28°28' W 016°14'0 0.0
2019-Mar-21 14:00N 28°28' W 016°14'0 0.0
2019-Mar-21 13:30N 28°28' W 016°14'0 0.0
2019-Mar-21 12:58N 28°28' W 016°14'0 0.0
2019-Mar-21 12:28N 28°28' W 016°14'0 0.0
2019-Mar-21 11:57N 28°28' W 016°14'0 0.0
2019-Mar-21 11:30N 28°28' W 016°14'0 0.0
2019-Mar-21 10:59N 28°28' W 016°14'0 0.0
2019-Mar-21 10:28N 28°28' W 016°14'0 0.0
2019-Mar-21 10:00N 28°28' W 016°14'0 0.0
2019-Mar-21 09:30N 28°28' W 016°14'0 0.0
2019-Mar-21 08:58N 28°28' W 016°14'0 0.0
2019-Mar-21 08:27N 28°28' W 016°14'0 0.0
2019-Mar-21 07:55N 28°28' W 016°14'0 0.1
2019-Mar-21 07:30N 28°28' W 016°14'2 3.3
2019-Mar-21 07:00N 28°28' W 016°13'4 8.4
2019-Mar-21 06:31N 28°24' W 016°11'5 9.9
2019-Mar-21 06:00N 28°19' W 016°11'510.9
2019-Mar-21 05:31N 28°14' W 016°14'811.5
2019-Mar-21 04:48N 28°07' W 016°19'2111.8
2019-Mar-21 03:00N 27°48' W 016°30'41 1.9 040 / 331014.310.8 18.012.7
2019-Mar-20 05:27N 27°54' W 017°16'510.6
2019-Mar-20 05:00N 27°56' W 017°21'810.6
2019-Mar-20 04:12N 27°56' W 017°31'112 5.3
2019-Mar-19 07:00N 29°48' W 017°24'6115.2 030 / 251022.110.8 17.013.8
2019-Mar-19 03:00N 30°48' W 017°12'52626.3 040 / 251023.510.8 16.510.9
2019-Mar-18 07:00N 39°30' W 015°48'19416.1 030 / 151025.210.8 16.214.5
2019-Mar-17 19:00N 36°36' W 014°00'8717.4 310 / 71025.727.0 16.413.9
2019-Mar-17 14:00N 37°54' W 013°12'11416.3 270 / 81025.310.8 18.511.2
2019-Mar-17 07:00N 39°36' W 012°06'19916.6 260 / 111023.010.8 14.110.916.0
2019-Mar-16 19:00N 42°36' W 010°12'5613.9 200 / 251019.3 0.3 13.0 9.1
2019-Mar-16 15:00N 43°30' W 009°54'18915.7 240 / 301018.510.8 12.3 7.1
2019-Mar-16 03:00N 46°06' W 007°24'   210 / 241021.010.8 11.9 5.7
Track history (hours):
 
Tides and Currents Weather Stations Pressure Air Temp Water Temp Dewpoint Dewpoint Depression Visibility Wind Speed Wind Dir Waves Ship Positions

Saga Sapphire

Last reported at 2019-Mar-25 23:31 UTC. Time now 2019-Mar-25 23:53 UTC.
Position N 39°06' W 009°43'.

Length 200 m; draft 8.4 m.

Type: Passenger vessel. MMSI: 256208000.

Date/timePositionNaut miles runAvg speedWind from/ knotsBaromVisibWave heightAir tempDewpointWater temp
2019-Mar-25 23:31N 39°06' W 009°43'815.9
2019-Mar-25 23:00N 38°58' W 009°43'816.0
2019-Mar-25 22:30N 38°50' W 009°42'815.8
2019-Mar-25 22:00N 38°42' W 009°41'713.7
2019-Mar-25 21:30N 38°37' W 009°36'715.0
2019-Mar-25 21:01N 38°36' W 009°26'714.7
2019-Mar-25 20:30N 38°40' W 009°18'611.5
2019-Mar-25 20:00N 38°41' W 009°11'3 5.3
2019-Mar-25 19:29N 38°43' W 009°08'0 0.0
2019-Mar-25 18:59N 38°43' W 009°08'0 0.0
2019-Mar-25 18:29N 38°43' W 009°08'0 0.0
2019-Mar-25 17:56N 38°43' W 009°08'0 0.0
2019-Mar-25 17:25N 38°43' W 009°08'0 0.0
2019-Mar-25 16:58N 38°43' W 009°08'0 0.0
2019-Mar-25 16:29N 38°43' W 009°08'0 0.0
2019-Mar-25 15:59N 38°43' W 009°08'0 0.0
2019-Mar-25 15:29N 38°43' W 009°08'0 0.0
2019-Mar-25 15:00N 38°43' W 009°08'0 0.0
2019-Mar-25 14:31N 38°43' W 009°08'0 0.0
2019-Mar-25 14:00N 38°43' W 009°08'0 0.0
2019-Mar-25 13:30N 38°43' W 009°08'0 0.0
2019-Mar-25 13:00N 38°43' W 009°08'0 0.0
2019-Mar-25 12:28N 38°43' W 009°08'0 0.5
2019-Mar-25 12:00N 38°42' W 009°07'0 0.7
2019-Mar-25 11:30N 38°42' W 009°08'4 8.2
2019-Mar-25 11:00N 38°41' W 009°13'4 7.7
2019-Mar-25 10:30N 38°41' W 009°18'611.1
2019-Mar-25 10:00N 38°37' W 009°23'612.6
2019-Mar-25 09:30N 38°32' W 009°27'713.2
2019-Mar-25 09:00N 38°25' W 009°30'713.0
2019-Mar-25 08:30N 38°19' W 009°32'612.3
2019-Mar-25 08:01N 38°13' W 009°34'713.2
2019-Mar-25 07:31N 38°07' W 009°37'713.2
2019-Mar-25 07:01N 38°01' W 009°39'7410.6
2019-Mar-25 07:00N 37°54' W 009°36'4 9.2 010 / 101017.827.0 16.214.1
2019-Mar-25 06:31N 37°54' W 009°42'714.9
2019-Mar-25 06:00N 37°47' W 009°45'816.5
2019-Mar-25 05:30N 37°39' W 009°48'816.6
2019-Mar-25 05:00N 37°31' W 009°51'816.6
2019-Mar-25 04:30N 37°24' W 009°55'816.3
2019-Mar-25 04:00N 37°16' W 009°58'19915.3
2019-Mar-24 15:00N 34°06' W 011°12'12115.1 020 / 221013.5 5.4 18.014.6
2019-Mar-24 07:00N 32°12' W 012°00'19115.9 040 / 101012.827.0 17.013.3
2019-Mar-23 19:00N 29°13' W 013°17'1108.2
2019-Mar-23 19:00N 29°12' W 013°18'612.9 320 / 361012.010.8 17.612.617.0
2019-Mar-23 18:30N 29°06' W 013°21'713.4
2019-Mar-23 18:00N 29°01' W 013°25'611.3
2019-Mar-23 17:30N 28°57' W 013°30'2 2.9
2019-Mar-23 16:55N 28°58' W 013°32'0 0.0
2019-Mar-23 16:28N 28°58' W 013°32'0 0.0
2019-Mar-23 15:49N 28°58' W 013°32'0 0.0
2019-Mar-23 15:25N 28°58' W 013°32'0 0.0
2019-Mar-23 14:37N 28°58' W 013°32'0 0.0
2019-Mar-23 14:25N 28°58' W 013°32'0 0.0
2019-Mar-23 13:55N 28°58' W 013°32'0 0.0
2019-Mar-23 13:25N 28°58' W 013°32'0 0.0
2019-Mar-23 12:55N 28°58' W 013°32'0 0.0
2019-Mar-23 12:13N 28°58' W 013°32'0 0.0
2019-Mar-23 11:57N 28°58' W 013°32'0 0.0
2019-Mar-23 11:23N 28°58' W 013°32'0 0.0
2019-Mar-23 10:53N 28°58' W 013°32'0 0.0
2019-Mar-23 10:29N 28°58' W 013°32'0 0.0
2019-Mar-23 09:55N 28°58' W 013°32'0 0.0
2019-Mar-23 09:19N 28°58' W 013°32'0 0.0
2019-Mar-23 09:01N 28°58' W 013°32'0 0.0
2019-Mar-23 08:29N 28°58' W 013°32'0 0.0
2019-Mar-23 07:59N 28°58' W 013°32'0 0.4
2019-Mar-23 07:30N 28°58' W 013°32'1 2.8
2019-Mar-23 07:00N 28°56' W 013°32'4 7.7
2019-Mar-23 06:30N 28°53' W 013°33'5 9.9
2019-Mar-23 06:00N 28°49' W 013°37'611.5
2019-Mar-23 05:30N 28°48' W 013°43'612.2
2019-Mar-23 05:00N 28°48' W 013°50'712.8
2019-Mar-23 04:30N 28°48' W 013°58'613.1
2019-Mar-23 04:01N 28°48' W 014°05'912.6
2019-Mar-23 03:19N 28°48' W 014°15'86 3.5
2019-Mar-22 02:59N 28°26' W 015°49'510.1
2019-Mar-22 02:30N 28°22' W 015°53'5 9.3
2019-Mar-22 02:00N 28°19' W 015°56'4 7.1
2019-Mar-22 01:29N 28°18' W 016°00'4 8.7
2019-Mar-22 01:00N 28°20' W 016°04'4 8.7
2019-Mar-22 00:30N 28°23' W 016°07'4 8.8
2019-Mar-22 00:00N 28°26' W 016°11'4 7.1
2019-Mar-21 23:30N 28°29' W 016°14'1 1.1
2019-Mar-21 23:00N 28°28' W 016°14'0 0.0
2019-Mar-21 22:29N 28°28' W 016°14'0 0.0
2019-Mar-21 21:59N 28°28' W 016°14'0 0.0
2019-Mar-21 21:29N 28°28' W 016°14'0 0.0
2019-Mar-21 20:59N 28°28' W 016°14'0 0.0
2019-Mar-21 20:26N 28°28' W 016°14'0 0.0
2019-Mar-21 19:59N 28°28' W 016°14'0 0.0
2019-Mar-21 19:30N 28°28' W 016°14'0 0.0
2019-Mar-21 19:00N 28°28' W 016°14'0 0.0
2019-Mar-21 18:29N 28°28' W 016°14'0 0.0
2019-Mar-21 17:58N 28°28' W 016°14'0 0.0
2019-Mar-21 17:28N 28°28' W 016°14'0 0.0
2019-Mar-21 17:00N 28°28' W 016°14'0 0.0
2019-Mar-21 16:29N 28°28' W 016°14'0 0.0
2019-Mar-21 15:58N 28°28' W 016°14'0 0.0
2019-Mar-21 15:28N 28°28' W 016°14'0 0.0
2019-Mar-21 14:58N 28°28' W 016°14'0 0.0
2019-Mar-21 14:30N 28°28' W 016°14'0 0.0
2019-Mar-21 14:00N 28°28' W 016°14'0 0.0
2019-Mar-21 13:30N 28°28' W 016°14'0 0.0
2019-Mar-21 12:58N 28°28' W 016°14'0 0.0
2019-Mar-21 12:28N 28°28' W 016°14'0 0.0
2019-Mar-21 11:57N 28°28' W 016°14'0 0.0
2019-Mar-21 11:30N 28°28' W 016°14'0 0.0
2019-Mar-21 10:59N 28°28' W 016°14'0 0.0
2019-Mar-21 10:28N 28°28' W 016°14'0 0.0
2019-Mar-21 10:00N 28°28' W 016°14'0 0.0
2019-Mar-21 09:30N 28°28' W 016°14'0 0.0
2019-Mar-21 08:58N 28°28' W 016°14'0 0.0
2019-Mar-21 08:27N 28°28' W 016°14'0 0.0
2019-Mar-21 07:55N 28°28' W 016°14'0 0.1
2019-Mar-21 07:30N 28°28' W 016°14'2 3.3
2019-Mar-21 07:00N 28°28' W 016°13'4 8.4
2019-Mar-21 06:31N 28°24' W 016°11'5 9.9
2019-Mar-21 06:00N 28°19' W 016°11'510.9
2019-Mar-21 05:31N 28°14' W 016°14'811.5
2019-Mar-21 04:48N 28°07' W 016°19'2111.8
2019-Mar-21 03:00N 27°48' W 016°30'41 1.9 040 / 331014.310.8 18.012.7
2019-Mar-20 05:27N 27°54' W 017°16'510.6
2019-Mar-20 05:00N 27°56' W 017°21'810.6
2019-Mar-20 04:12N 27°56' W 017°31'112 5.3
2019-Mar-19 07:00N 29°48' W 017°24'6115.2 030 / 251022.110.8 17.013.8
2019-Mar-19 03:00N 30°48' W 017°12'52626.3 040 / 251023.510.8 16.510.9
2019-Mar-18 07:00N 39°30' W 015°48'19416.1 030 / 151025.210.8 16.214.5
2019-Mar-17 19:00N 36°36' W 014°00'8717.4 310 / 71025.727.0 16.413.9
2019-Mar-17 14:00N 37°54' W 013°12'11416.3 270 / 81025.310.8 18.511.2
2019-Mar-17 07:00N 39°36' W 012°06'19916.6 260 / 111023.010.8 14.110.916.0
2019-Mar-16 19:00N 42°36' W 010°12'5613.9 200 / 251019.3 0.3 13.0 9.1
2019-Mar-16 15:00N 43°30' W 009°54'18915.7 240 / 301018.510.8 12.3 7.1
2019-Mar-16 03:00N 46°06' W 007°24'   210 / 241021.010.8 11.9 5.7

Dump ship's entire track history